sensor_id;sensor_type;location;lat;lon;timestamp;P1;durP1;ratioP1;P2;durP2;ratioP2
59374;SDS011;45172;55.006;73.460;2022-10-31T00:01:31;15.13;;;7.13;;
59374;SDS011;45172;55.006;73.460;2022-10-31T00:04:04;18.88;;;7.93;;
59374;SDS011;45172;55.006;73.460;2022-10-31T00:06:31;16.85;;;8.30;;
59374;SDS011;45172;55.006;73.460;2022-10-31T00:08:58;28.27;;;9.95;;
59374;SDS011;45172;55.006;73.460;2022-10-31T00:11:28;27.02;;;11.30;;
59374;SDS011;45172;55.006;73.460;2022-10-31T00:13:56;27.35;;;11.00;;
59374;SDS011;45172;55.006;73.460;2022-10-31T00:16:33;27.23;;;12.20;;
59374;SDS011;45172;55.006;73.460;2022-10-31T00:19:00;30.70;;;12.30;;
59374;SDS011;45172;55.006;73.460;2022-10-31T00:21:28;27.17;;;12.20;;
59374;SDS011;45172;55.006;73.460;2022-10-31T00:23:55;32.05;;;12.70;;
59374;SDS011;45172;55.006;73.460;2022-10-31T00:26:32;35.88;;;13.70;;
59374;SDS011;45172;55.006;73.460;2022-10-31T00:28:58;32.95;;;14.52;;
59374;SDS011;45172;55.006;73.460;2022-10-31T00:31:24;41.22;;;16.02;;
59374;SDS011;45172;55.006;73.460;2022-10-31T00:33:50;41.47;;;16.38;;
59374;SDS011;45172;55.006;73.460;2022-10-31T00:36:17;45.65;;;17.48;;
59374;SDS011;45172;55.006;73.460;2022-10-31T00:38:54;48.00;;;17.35;;
59374;SDS011;45172;55.006;73.460;2022-10-31T00:41:20;55.95;;;21.42;;
59374;SDS011;45172;55.006;73.460;2022-10-31T00:43:52;46.00;;;18.35;;
59374;SDS011;45172;55.006;73.460;2022-10-31T00:46:18;54.50;;;21.58;;
59374;SDS011;45172;55.006;73.460;2022-10-31T00:48:54;50.88;;;20.70;;
59374;SDS011;45172;55.006;73.460;2022-10-31T00:51:20;60.95;;;22.80;;
59374;SDS011;45172;55.006;73.460;2022-10-31T00:53:47;52.53;;;21.23;;
59374;SDS011;45172;55.006;73.460;2022-10-31T00:56:12;54.92;;;20.80;;
59374;SDS011;45172;55.006;73.460;2022-10-31T00:58:38;64.05;;;21.35;;
59374;SDS011;45172;55.006;73.460;2022-10-31T01:01:04;58.75;;;21.33;;
59374;SDS011;45172;55.006;73.460;2022-10-31T01:03:31;51.25;;;20.52;;
59374;SDS011;45172;55.006;73.460;2022-10-31T01:06:06;55.55;;;19.52;;
59374;SDS011;45172;55.006;73.460;2022-10-31T01:08:37;45.35;;;18.67;;
59374;SDS011;45172;55.006;73.460;2022-10-31T01:11:14;45.63;;;17.88;;
59374;SDS011;45172;55.006;73.460;2022-10-31T01:13:42;46.17;;;18.92;;
59374;SDS011;45172;55.006;73.460;2022-10-31T01:16:13;44.60;;;18.00;;
59374;SDS011;45172;55.006;73.460;2022-10-31T01:18:41;43.55;;;18.63;;
59374;SDS011;45172;55.006;73.460;2022-10-31T01:21:11;47.70;;;21.08;;
59374;SDS011;45172;55.006;73.460;2022-10-31T01:23:39;45.53;;;19.73;;
59374;SDS011;45172;55.006;73.460;2022-10-31T01:26:16;53.03;;;21.88;;
59374;SDS011;45172;55.006;73.460;2022-10-31T01:28:52;65.50;;;23.48;;
59374;SDS011;45172;55.006;73.460;2022-10-31T01:31:23;64.18;;;26.08;;
59374;SDS011;45172;55.006;73.460;2022-10-31T01:33:51;71.22;;;25.30;;
59374;SDS011;45172;55.006;73.460;2022-10-31T01:38:50;85.15;;;30.55;;
59374;SDS011;45172;55.006;73.460;2022-10-31T01:41:20;78.03;;;32.47;;
59374;SDS011;45172;55.006;73.460;2022-10-31T01:43:53;97.68;;;32.65;;
59374;SDS011;45172;55.006;73.460;2022-10-31T01:46:29;87.50;;;32.72;;
59374;SDS011;45172;55.006;73.460;2022-10-31T01:49:00;90.80;;;32.83;;
59374;SDS011;45172;55.006;73.460;2022-10-31T01:51:30;86.75;;;32.88;;
59374;SDS011;45172;55.006;73.460;2022-10-31T01:54:01;75.82;;;29.25;;
59374;SDS011;45172;55.006;73.460;2022-10-31T01:56:32;80.38;;;29.75;;
59374;SDS011;45172;55.006;73.460;2022-10-31T01:59:00;78.47;;;26.65;;
59374;SDS011;45172;55.006;73.460;2022-10-31T02:01:28;64.35;;;23.92;;
59374;SDS011;45172;55.006;73.460;2022-10-31T02:03:54;70.53;;;21.55;;
59374;SDS011;45172;55.006;73.460;2022-10-31T02:06:43;78.57;;;22.23;;
59374;SDS011;45172;55.006;73.460;2022-10-31T02:09:16;52.50;;;20.80;;
59374;SDS011;45172;55.006;73.460;2022-10-31T02:11:58;71.32;;;20.55;;
59374;SDS011;45172;55.006;73.460;2022-10-31T02:14:26;69.75;;;22.83;;
59374;SDS011;45172;55.006;73.460;2022-10-31T02:16:54;59.97;;;23.48;;
59374;SDS011;45172;55.006;73.460;2022-10-31T02:36:53;94.15;;;26.13;;
59374;SDS011;45172;55.006;73.460;2022-10-31T02:39:25;71.22;;;27.60;;
59374;SDS011;45172;55.006;73.460;2022-10-31T02:42:13;83.55;;;26.77;;
59374;SDS011;45172;55.006;73.460;2022-10-31T02:44:45;70.72;;;27.95;;
59374;SDS011;45172;55.006;73.460;2022-10-31T02:47:22;59.53;;;21.55;;
59374;SDS011;45172;55.006;73.460;2022-10-31T02:50:07;62.22;;;23.23;;
59374;SDS011;45172;55.006;73.460;2022-10-31T02:52:37;64.20;;;22.92;;
59374;SDS011;45172;55.006;73.460;2022-10-31T02:55:13;68.65;;;22.70;;
59374;SDS011;45172;55.006;73.460;2022-10-31T02:57:56;61.53;;;23.73;;
59374;SDS011;45172;55.006;73.460;2022-10-31T03:00:36;72.32;;;27.05;;
59374;SDS011;45172;55.006;73.460;2022-10-31T03:03:14;83.85;;;28.48;;
59374;SDS011;45172;55.006;73.460;2022-10-31T03:06:00;54.17;;;21.23;;
59374;SDS011;45172;55.006;73.460;2022-10-31T03:11:20;66.55;;;24.70;;
59374;SDS011;45172;55.006;73.460;2022-10-31T03:14:01;56.20;;;21.00;;
59374;SDS011;45172;55.006;73.460;2022-10-31T03:19:14;62.25;;;24.52;;
59374;SDS011;45172;55.006;73.460;2022-10-31T03:21:55;56.17;;;22.48;;
59374;SDS011;45172;55.006;73.460;2022-10-31T03:24:41;63.00;;;23.30;;
59374;SDS011;45172;55.006;73.460;2022-10-31T03:27:09;77.13;;;26.33;;
59374;SDS011;45172;55.006;73.460;2022-10-31T03:29:43;73.07;;;24.10;;
59374;SDS011;45172;55.006;73.460;2022-10-31T03:32:12;77.68;;;29.77;;
59374;SDS011;45172;55.006;73.460;2022-10-31T03:34:50;73.82;;;29.10;;
59374;SDS011;45172;55.006;73.460;2022-10-31T03:37:18;97.82;;;32.83;;
59374;SDS011;45172;55.006;73.460;2022-10-31T03:39:47;68.32;;;26.40;;
59374;SDS011;45172;55.006;73.460;2022-10-31T03:42:24;57.42;;;23.10;;
59374;SDS011;45172;55.006;73.460;2022-10-31T03:44:58;63.00;;;23.85;;
59374;SDS011;45172;55.006;73.460;2022-10-31T03:50:07;70.28;;;23.23;;
59374;SDS011;45172;55.006;73.460;2022-10-31T03:55:07;56.38;;;21.50;;
59374;SDS011;45172;55.006;73.460;2022-10-31T03:58:12;179.87;;;53.60;;
59374;SDS011;45172;55.006;73.460;2022-10-31T04:00:39;150.57;;;41.85;;
59374;SDS011;45172;55.006;73.460;2022-10-31T04:03:24;106.05;;;32.22;;
59374;SDS011;45172;55.006;73.460;2022-10-31T04:05:53;80.40;;;25.83;;
59374;SDS011;45172;55.006;73.460;2022-10-31T04:08:23;73.70;;;25.77;;
59374;SDS011;45172;55.006;73.460;2022-10-31T04:13:24;91.80;;;30.45;;
59374;SDS011;45172;55.006;73.460;2022-10-31T04:15:54;109.10;;;40.25;;
59374;SDS011;45172;55.006;73.460;2022-10-31T04:18:25;108.60;;;36.20;;
59374;SDS011;45172;55.006;73.460;2022-10-31T04:21:05;83.70;;;29.25;;
59374;SDS011;45172;55.006;73.460;2022-10-31T04:23:37;87.10;;;29.63;;
59374;SDS011;45172;55.006;73.460;2022-10-31T04:26:03;95.35;;;31.92;;
59374;SDS011;45172;55.006;73.460;2022-10-31T04:28:29;132.68;;;36.40;;
59374;SDS011;45172;55.006;73.460;2022-10-31T04:30:55;104.20;;;29.50;;
59374;SDS011;45172;55.006;73.460;2022-10-31T04:33:22;101.10;;;33.42;;
59374;SDS011;45172;55.006;73.460;2022-10-31T04:35:48;297.23;;;73.18;;
59374;SDS011;45172;55.006;73.460;2022-10-31T04:38:14;169.95;;;48.42;;
59374;SDS011;45172;55.006;73.460;2022-10-31T04:40:40;211.38;;;60.63;;
59374;SDS011;45172;55.006;73.460;2022-10-31T04:43:06;107.47;;;36.53;;
59374;SDS011;45172;55.006;73.460;2022-10-31T04:45:32;112.45;;;36.35;;
59374;SDS011;45172;55.006;73.460;2022-10-31T04:47:58;122.13;;;37.22;;
59374;SDS011;45172;55.006;73.460;2022-10-31T04:50:24;107.25;;;38.30;;
59374;SDS011;45172;55.006;73.460;2022-10-31T04:53:00;100.68;;;36.22;;
59374;SDS011;45172;55.006;73.460;2022-10-31T04:55:26;96.13;;;33.20;;
59374;SDS011;45172;55.006;73.460;2022-10-31T04:57:52;90.43;;;34.47;;
59374;SDS011;45172;55.006;73.460;2022-10-31T05:00:19;99.60;;;34.17;;
59374;SDS011;45172;55.006;73.460;2022-10-31T05:02:46;124.38;;;38.65;;
59374;SDS011;45172;55.006;73.460;2022-10-31T05:05:14;109.10;;;39.00;;
59374;SDS011;45172;55.006;73.460;2022-10-31T05:07:46;114.28;;;35.88;;
59374;SDS011;45172;55.006;73.460;2022-10-31T05:10:15;109.22;;;34.58;;
59374;SDS011;45172;55.006;73.460;2022-10-31T05:12:47;118.55;;;40.30;;
59374;SDS011;45172;55.006;73.460;2022-10-31T05:15:14;140.20;;;46.45;;
59374;SDS011;45172;55.006;73.460;2022-10-31T05:17:41;135.63;;;40.83;;
59374;SDS011;45172;55.006;73.460;2022-10-31T05:20:08;113.90;;;37.58;;
59374;SDS011;45172;55.006;73.460;2022-10-31T05:22:35;147.10;;;50.20;;
59374;SDS011;45172;55.006;73.460;2022-10-31T05:25:08;161.52;;;54.33;;
59374;SDS011;45172;55.006;73.460;2022-10-31T05:27:34;154.65;;;53.30;;
59374;SDS011;45172;55.006;73.460;2022-10-31T05:29:59;143.45;;;51.20;;
59374;SDS011;45172;55.006;73.460;2022-10-31T05:32:25;132.27;;;44.15;;
59374;SDS011;45172;55.006;73.460;2022-10-31T05:34:51;113.93;;;38.97;;
59374;SDS011;45172;55.006;73.460;2022-10-31T05:37:17;101.72;;;37.35;;
59374;SDS011;45172;55.006;73.460;2022-10-31T05:39:43;126.65;;;42.08;;
59374;SDS011;45172;55.006;73.460;2022-10-31T05:42:09;141.43;;;45.10;;
59374;SDS011;45172;55.006;73.460;2022-10-31T05:44:35;147.73;;;41.20;;
59374;SDS011;45172;55.006;73.460;2022-10-31T05:47:01;135.13;;;43.47;;
59374;SDS011;45172;55.006;73.460;2022-10-31T05:49:27;134.63;;;41.88;;
59374;SDS011;45172;55.006;73.460;2022-10-31T05:51:53;159.38;;;46.58;;
59374;SDS011;45172;55.006;73.460;2022-10-31T05:54:29;106.35;;;36.15;;
59374;SDS011;45172;55.006;73.460;2022-10-31T05:56:55;139.32;;;46.95;;
59374;SDS011;45172;55.006;73.460;2022-10-31T05:59:21;118.10;;;42.33;;
59374;SDS011;45172;55.006;73.460;2022-10-31T06:01:48;114.82;;;41.35;;
59374;SDS011;45172;55.006;73.460;2022-10-31T06:04:24;135.98;;;43.50;;
59374;SDS011;45172;55.006;73.460;2022-10-31T06:06:56;105.22;;;37.15;;
59374;SDS011;45172;55.006;73.460;2022-10-31T06:09:31;122.75;;;38.97;;
59374;SDS011;45172;55.006;73.460;2022-10-31T06:11:58;114.45;;;37.60;;
59374;SDS011;45172;55.006;73.460;2022-10-31T06:14:34;93.72;;;33.90;;
59374;SDS011;45172;55.006;73.460;2022-10-31T06:17:00;84.90;;;32.97;;
59374;SDS011;45172;55.006;73.460;2022-10-31T06:19:26;86.35;;;33.55;;
59374;SDS011;45172;55.006;73.460;2022-10-31T06:21:56;71.80;;;28.83;;
59374;SDS011;45172;55.006;73.460;2022-10-31T06:24:22;94.63;;;31.08;;
59374;SDS011;45172;55.006;73.460;2022-10-31T06:26:48;100.03;;;36.78;;
59374;SDS011;45172;55.006;73.460;2022-10-31T06:29:14;100.28;;;35.55;;
59374;SDS011;45172;55.006;73.460;2022-10-31T06:31:40;130.90;;;46.85;;
59374;SDS011;45172;55.006;73.460;2022-10-31T06:34:06;145.07;;;46.63;;
59374;SDS011;45172;55.006;73.460;2022-10-31T06:36:32;139.65;;;42.13;;
59374;SDS011;45172;55.006;73.460;2022-10-31T06:39:08;118.78;;;41.55;;
59374;SDS011;45172;55.006;73.460;2022-10-31T06:41:34;138.48;;;41.30;;
59374;SDS011;45172;55.006;73.460;2022-10-31T06:44:02;96.85;;;32.85;;
59374;SDS011;45172;55.006;73.460;2022-10-31T06:46:28;103.85;;;36.63;;
59374;SDS011;45172;55.006;73.460;2022-10-31T06:48:54;102.25;;;35.38;;
59374;SDS011;45172;55.006;73.460;2022-10-31T06:51:20;98.20;;;35.90;;
59374;SDS011;45172;55.006;73.460;2022-10-31T06:53:46;113.22;;;40.00;;
59374;SDS011;45172;55.006;73.460;2022-10-31T06:56:12;97.72;;;34.30;;
59374;SDS011;45172;55.006;73.460;2022-10-31T06:58:43;101.18;;;36.05;;
59374;SDS011;45172;55.006;73.460;2022-10-31T07:01:09;82.47;;;28.42;;
59374;SDS011;45172;55.006;73.460;2022-10-31T07:03:35;107.93;;;33.58;;
59374;SDS011;45172;55.006;73.460;2022-10-31T07:06:00;71.25;;;29.02;;
59374;SDS011;45172;55.006;73.460;2022-10-31T07:08:26;86.53;;;31.85;;
59374;SDS011;45172;55.006;73.460;2022-10-31T07:10:53;102.78;;;31.20;;
59374;SDS011;45172;55.006;73.460;2022-10-31T07:13:22;96.03;;;33.40;;
59374;SDS011;45172;55.006;73.460;2022-10-31T07:15:54;84.40;;;30.60;;
59374;SDS011;45172;55.006;73.460;2022-10-31T07:18:25;78.10;;;30.67;;
59374;SDS011;45172;55.006;73.460;2022-10-31T07:20:51;94.78;;;30.48;;
59374;SDS011;45172;55.006;73.460;2022-10-31T07:23:21;79.00;;;30.13;;
59374;SDS011;45172;55.006;73.460;2022-10-31T07:25:56;90.68;;;31.55;;
59374;SDS011;45172;55.006;73.460;2022-10-31T07:28:27;117.03;;;38.55;;
59374;SDS011;45172;55.006;73.460;2022-10-31T07:30:54;127.85;;;40.08;;
59374;SDS011;45172;55.006;73.460;2022-10-31T07:33:31;115.55;;;40.03;;
59374;SDS011;45172;55.006;73.460;2022-10-31T07:36:07;113.00;;;36.95;;
59374;SDS011;45172;55.006;73.460;2022-10-31T07:38:33;128.43;;;40.85;;
59374;SDS011;45172;55.006;73.460;2022-10-31T07:40:59;151.52;;;42.53;;
59374;SDS011;45172;55.006;73.460;2022-10-31T07:43:25;120.15;;;41.58;;
59374;SDS011;45172;55.006;73.460;2022-10-31T07:45:52;112.10;;;38.42;;
59374;SDS011;45172;55.006;73.460;2022-10-31T07:48:19;92.40;;;30.80;;
59374;SDS011;45172;55.006;73.460;2022-10-31T07:50:56;115.85;;;42.45;;
59374;SDS011;45172;55.006;73.460;2022-10-31T07:53:21;69.13;;;26.27;;
59374;SDS011;45172;55.006;73.460;2022-10-31T07:55:57;67.53;;;24.00;;
59374;SDS011;45172;55.006;73.460;2022-10-31T07:58:23;55.28;;;22.98;;
59374;SDS011;45172;55.006;73.460;2022-10-31T08:00:50;63.95;;;24.13;;
59374;SDS011;45172;55.006;73.460;2022-10-31T08:03:16;66.85;;;24.55;;
59374;SDS011;45172;55.006;73.460;2022-10-31T08:05:42;90.68;;;30.20;;
59374;SDS011;45172;55.006;73.460;2022-10-31T08:08:11;95.40;;;33.95;;
59374;SDS011;45172;55.006;73.460;2022-10-31T08:10:38;93.07;;;32.70;;
59374;SDS011;45172;55.006;73.460;2022-10-31T08:13:09;85.13;;;29.92;;
59374;SDS011;45172;55.006;73.460;2022-10-31T08:15:36;74.00;;;26.42;;
59374;SDS011;45172;55.006;73.460;2022-10-31T08:18:05;63.47;;;25.83;;
59374;SDS011;45172;55.006;73.460;2022-10-31T08:28:37;71.82;;;25.80;;
59374;SDS011;45172;55.006;73.460;2022-10-31T08:31:28;76.43;;;24.60;;
59374;SDS011;45172;55.006;73.460;2022-10-31T08:33:54;49.78;;;21.30;;
59374;SDS011;45172;55.006;73.460;2022-10-31T08:36:20;46.47;;;19.83;;
59374;SDS011;45172;55.006;73.460;2022-10-31T08:38:46;44.28;;;20.13;;
59374;SDS011;45172;55.006;73.460;2022-10-31T08:41:18;55.78;;;21.67;;
59374;SDS011;45172;55.006;73.460;2022-10-31T08:43:55;66.75;;;20.95;;
59374;SDS011;45172;55.006;73.460;2022-10-31T08:46:21;43.17;;;21.88;;
59374;SDS011;45172;55.006;73.460;2022-10-31T08:48:57;51.35;;;18.95;;
59374;SDS011;45172;55.006;73.460;2022-10-31T08:51:23;55.30;;;20.40;;
59374;SDS011;45172;55.006;73.460;2022-10-31T08:53:59;59.60;;;21.13;;
59374;SDS011;45172;55.006;73.460;2022-10-31T08:56:25;45.03;;;20.45;;
59374;SDS011;45172;55.006;73.460;2022-10-31T08:59:01;52.42;;;19.90;;
59374;SDS011;45172;55.006;73.460;2022-10-31T09:01:27;52.75;;;21.58;;
59374;SDS011;45172;55.006;73.460;2022-10-31T09:03:53;56.40;;;21.48;;
59374;SDS011;45172;55.006;73.460;2022-10-31T09:06:22;53.53;;;24.13;;
59374;SDS011;45172;55.006;73.460;2022-10-31T09:08:48;51.33;;;21.55;;
59374;SDS011;45172;55.006;73.460;2022-10-31T09:11:14;58.75;;;22.17;;
59374;SDS011;45172;55.006;73.460;2022-10-31T09:13:42;105.97;;;43.15;;
59374;SDS011;45172;55.006;73.460;2022-10-31T09:16:15;58.05;;;24.10;;
59374;SDS011;45172;55.006;73.460;2022-10-31T09:18:41;81.80;;;29.40;;
59374;SDS011;45172;55.006;73.460;2022-10-31T09:21:07;77.82;;;31.73;;
59374;SDS011;45172;55.006;73.460;2022-10-31T09:23:33;65.78;;;27.55;;
59374;SDS011;45172;55.006;73.460;2022-10-31T09:26:00;80.50;;;30.73;;
59374;SDS011;45172;55.006;73.460;2022-10-31T09:28:26;72.88;;;28.25;;
59374;SDS011;45172;55.006;73.460;2022-10-31T09:30:57;72.50;;;29.08;;
59374;SDS011;45172;55.006;73.460;2022-10-31T09:33:33;74.22;;;25.63;;
59374;SDS011;45172;55.006;73.460;2022-10-31T09:35:58;87.25;;;33.38;;
59374;SDS011;45172;55.006;73.460;2022-10-31T09:38:24;91.18;;;30.67;;
59374;SDS011;45172;55.006;73.460;2022-10-31T09:51:04;50.22;;;22.17;;
59374;SDS011;45172;55.006;73.460;2022-10-31T09:55:59;53.03;;;21.27;;
59374;SDS011;45172;55.006;73.460;2022-10-31T09:58:38;56.08;;;21.90;;
59374;SDS011;45172;55.006;73.460;2022-10-31T10:01:15;75.20;;;29.67;;
59374;SDS011;45172;55.006;73.460;2022-10-31T10:03:44;69.85;;;29.52;;
59374;SDS011;45172;55.006;73.460;2022-10-31T10:08:44;48.42;;;21.60;;
59374;SDS011;45172;55.006;73.460;2022-10-31T10:11:20;61.25;;;26.08;;
59374;SDS011;45172;55.006;73.460;2022-10-31T10:22:37;54.70;;;20.40;;
59374;SDS011;45172;55.006;73.460;2022-10-31T10:25:19;62.97;;;22.35;;
59374;SDS011;45172;55.006;73.460;2022-10-31T10:28:02;66.35;;;24.42;;
59374;SDS011;45172;55.006;73.460;2022-10-31T10:30:50;48.40;;;21.35;;
59374;SDS011;45172;55.006;73.460;2022-10-31T10:33:21;49.72;;;22.92;;
59374;SDS011;45172;55.006;73.460;2022-10-31T10:35:58;51.88;;;21.70;;
59374;SDS011;45172;55.006;73.460;2022-10-31T10:41:17;67.05;;;26.25;;
59374;SDS011;45172;55.006;73.460;2022-10-31T10:43:54;49.38;;;20.88;;
59374;SDS011;45172;55.006;73.460;2022-10-31T10:46:42;47.38;;;20.73;;
59374;SDS011;45172;55.006;73.460;2022-10-31T10:59:42;52.28;;;20.58;;
59374;SDS011;45172;55.006;73.460;2022-10-31T11:02:18;83.00;;;37.67;;
59374;SDS011;45172;55.006;73.460;2022-10-31T11:04:53;50.97;;;20.83;;
59374;SDS011;45172;55.006;73.460;2022-10-31T11:07:24;47.85;;;22.17;;
59374;SDS011;45172;55.006;73.460;2022-10-31T11:10:04;61.22;;;25.05;;
59374;SDS011;45172;55.006;73.460;2022-10-31T11:12:32;42.83;;;19.35;;
59374;SDS011;45172;55.006;73.460;2022-10-31T11:14:59;41.97;;;17.40;;
59374;SDS011;45172;55.006;73.460;2022-10-31T11:17:30;42.30;;;17.67;;
59374;SDS011;45172;55.006;73.460;2022-10-31T11:20:00;35.95;;;17.33;;
59374;SDS011;45172;55.006;73.460;2022-10-31T11:22:25;48.80;;;17.58;;
59374;SDS011;45172;55.006;73.460;2022-10-31T11:25:14;43.05;;;21.52;;
59374;SDS011;45172;55.006;73.460;2022-10-31T11:27:45;77.05;;;29.52;;
59374;SDS011;45172;55.006;73.460;2022-10-31T11:30:12;75.35;;;32.63;;
59374;SDS011;45172;55.006;73.460;2022-10-31T11:32:40;46.65;;;19.58;;
59374;SDS011;45172;55.006;73.460;2022-10-31T11:35:18;44.80;;;19.20;;
59374;SDS011;45172;55.006;73.460;2022-10-31T11:37:51;42.42;;;19.30;;
59374;SDS011;45172;55.006;73.460;2022-10-31T11:40:20;52.58;;;22.20;;
59374;SDS011;45172;55.006;73.460;2022-10-31T11:42:46;41.47;;;17.02;;
59374;SDS011;45172;55.006;73.460;2022-10-31T11:45:16;43.00;;;17.35;;
59374;SDS011;45172;55.006;73.460;2022-10-31T11:47:44;45.42;;;18.83;;
59374;SDS011;45172;55.006;73.460;2022-10-31T11:50:11;55.30;;;19.83;;
59374;SDS011;45172;55.006;73.460;2022-10-31T11:52:44;58.40;;;20.75;;
59374;SDS011;45172;55.006;73.460;2022-10-31T11:55:30;57.90;;;19.70;;
59374;SDS011;45172;55.006;73.460;2022-10-31T11:57:57;53.28;;;19.25;;
59374;SDS011;45172;55.006;73.460;2022-10-31T12:00:31;66.20;;;25.23;;
59374;SDS011;45172;55.006;73.460;2022-10-31T12:03:11;100.85;;;43.88;;
59374;SDS011;45172;55.006;73.460;2022-10-31T12:05:51;83.20;;;36.47;;
59374;SDS011;45172;55.006;73.460;2022-10-31T12:08:24;110.70;;;43.67;;
59374;SDS011;45172;55.006;73.460;2022-10-31T12:10:58;216.63;;;70.40;;
59374;SDS011;45172;55.006;73.460;2022-10-31T12:14:08;149.27;;;50.40;;
59374;SDS011;45172;55.006;73.460;2022-10-31T12:24:35;228.48;;;83.03;;
59374;SDS011;45172;55.006;73.460;2022-10-31T12:43:11;87.53;;;35.30;;
59374;SDS011;45172;55.006;73.460;2022-10-31T12:45:46;106.68;;;32.72;;
59374;SDS011;45172;55.006;73.460;2022-10-31T12:58:46;61.25;;;29.85;;
59374;SDS011;45172;55.006;73.460;2022-10-31T13:01:20;45.50;;;24.52;;
59374;SDS011;45172;55.006;73.460;2022-10-31T13:03:52;50.45;;;23.45;;
59374;SDS011;45172;55.006;73.460;2022-10-31T13:06:22;70.25;;;31.02;;
59374;SDS011;45172;55.006;73.460;2022-10-31T13:09:17;49.28;;;25.98;;
59374;SDS011;45172;55.006;73.460;2022-10-31T13:11:46;47.40;;;21.80;;
59374;SDS011;45172;55.006;73.460;2022-10-31T13:16:53;64.20;;;25.40;;
59374;SDS011;45172;55.006;73.460;2022-10-31T13:22:11;68.78;;;29.75;;
59374;SDS011;45172;55.006;73.460;2022-10-31T13:24:54;62.90;;;25.48;;
59374;SDS011;45172;55.006;73.460;2022-10-31T13:27:33;47.78;;;22.10;;
59374;SDS011;45172;55.006;73.460;2022-10-31T13:30:04;59.83;;;26.77;;
59374;SDS011;45172;55.006;73.460;2022-10-31T13:35:25;73.38;;;31.25;;
59374;SDS011;45172;55.006;73.460;2022-10-31T13:40:52;79.53;;;30.45;;
59374;SDS011;45172;55.006;73.460;2022-10-31T13:48:59;70.28;;;25.75;;
59374;SDS011;45172;55.006;73.460;2022-10-31T13:51:26;76.32;;;31.92;;
59374;SDS011;45172;55.006;73.460;2022-10-31T13:56:21;62.30;;;27.83;;
59374;SDS011;45172;55.006;73.460;2022-10-31T14:01:46;72.40;;;26.50;;
59374;SDS011;45172;55.006;73.460;2022-10-31T14:04:25;63.25;;;27.33;;
59374;SDS011;45172;55.006;73.460;2022-10-31T14:06:59;69.18;;;24.88;;
59374;SDS011;45172;55.006;73.460;2022-10-31T14:09:33;71.18;;;24.08;;
59374;SDS011;45172;55.006;73.460;2022-10-31T14:12:07;69.35;;;27.55;;
59374;SDS011;45172;55.006;73.460;2022-10-31T14:14:48;64.25;;;24.90;;
59374;SDS011;45172;55.006;73.460;2022-10-31T14:17:22;127.90;;;52.67;;
59374;SDS011;45172;55.006;73.460;2022-10-31T14:22:37;56.67;;;24.90;;
59374;SDS011;45172;55.006;73.460;2022-10-31T14:31:51;240.73;;;93.00;;
59374;SDS011;45172;55.006;73.460;2022-10-31T14:43:09;55.63;;;22.52;;
59374;SDS011;45172;55.006;73.460;2022-10-31T14:52:12;58.67;;;24.27;;
59374;SDS011;45172;55.006;73.460;2022-10-31T14:54:41;74.50;;;28.20;;
59374;SDS011;45172;55.006;73.460;2022-10-31T14:57:22;125.43;;;44.45;;
59374;SDS011;45172;55.006;73.460;2022-10-31T15:00:01;79.32;;;24.65;;
59374;SDS011;45172;55.006;73.460;2022-10-31T15:02:32;66.32;;;24.65;;
59374;SDS011;45172;55.006;73.460;2022-10-31T15:05:07;67.65;;;27.38;;
59374;SDS011;45172;55.006;73.460;2022-10-31T15:07:35;64.93;;;24.77;;
59374;SDS011;45172;55.006;73.460;2022-10-31T15:15:51;50.00;;;19.80;;
59374;SDS011;45172;55.006;73.460;2022-10-31T15:18:21;65.45;;;22.42;;
59374;SDS011;45172;55.006;73.460;2022-10-31T15:20:50;67.22;;;22.58;;
59374;SDS011;45172;55.006;73.460;2022-10-31T15:25:59;69.03;;;22.42;;
59374;SDS011;45172;55.006;73.460;2022-10-31T15:28:30;59.58;;;22.25;;
59374;SDS011;45172;55.006;73.460;2022-10-31T15:30:58;56.70;;;19.60;;
59374;SDS011;45172;55.006;73.460;2022-10-31T15:33:41;58.00;;;19.40;;
59374;SDS011;45172;55.006;73.460;2022-10-31T15:36:18;79.28;;;23.17;;
59374;SDS011;45172;55.006;73.460;2022-10-31T15:38:47;68.07;;;20.35;;
59374;SDS011;45172;55.006;73.460;2022-10-31T15:41:48;64.07;;;20.77;;
59374;SDS011;45172;55.006;73.460;2022-10-31T15:44:26;65.35;;;20.48;;
59374;SDS011;45172;55.006;73.460;2022-10-31T15:49:52;49.92;;;21.10;;
59374;SDS011;45172;55.006;73.460;2022-10-31T15:52:24;59.88;;;21.45;;
59374;SDS011;45172;55.006;73.460;2022-10-31T15:55:03;51.75;;;21.15;;
59374;SDS011;45172;55.006;73.460;2022-10-31T15:57:45;65.38;;;24.55;;
59374;SDS011;45172;55.006;73.460;2022-10-31T16:03:00;62.30;;;23.75;;
59374;SDS011;45172;55.006;73.460;2022-10-31T16:05:38;62.70;;;23.23;;
59374;SDS011;45172;55.006;73.460;2022-10-31T16:16:31;68.93;;;22.33;;
59374;SDS011;45172;55.006;73.460;2022-10-31T16:18:59;56.70;;;20.42;;
59374;SDS011;45172;55.006;73.460;2022-10-31T16:21:31;63.20;;;21.10;;
59374;SDS011;45172;55.006;73.460;2022-10-31T16:24:04;52.33;;;19.55;;
59374;SDS011;45172;55.006;73.460;2022-10-31T16:26:41;55.17;;;22.13;;
59374;SDS011;45172;55.006;73.460;2022-10-31T16:29:46;46.67;;;19.10;;
59374;SDS011;45172;55.006;73.460;2022-10-31T16:37:38;55.67;;;21.55;;
59374;SDS011;45172;55.006;73.460;2022-10-31T16:40:05;58.13;;;23.25;;
59374;SDS011;45172;55.006;73.460;2022-10-31T16:42:32;63.95;;;27.27;;
59374;SDS011;45172;55.006;73.460;2022-10-31T16:44:58;75.68;;;24.63;;
59374;SDS011;45172;55.006;73.460;2022-10-31T16:47:25;66.35;;;24.02;;
59374;SDS011;45172;55.006;73.460;2022-10-31T16:49:51;66.35;;;25.63;;
59374;SDS011;45172;55.006;73.460;2022-10-31T16:52:17;71.47;;;24.55;;
59374;SDS011;45172;55.006;73.460;2022-10-31T16:54:43;83.47;;;27.92;;
59374;SDS011;45172;55.006;73.460;2022-10-31T16:57:18;83.65;;;28.23;;
59374;SDS011;45172;55.006;73.460;2022-10-31T16:59:51;100.45;;;32.63;;
59374;SDS011;45172;55.006;73.460;2022-10-31T17:02:20;96.50;;;34.20;;
59374;SDS011;45172;55.006;73.460;2022-10-31T17:04:57;93.30;;;37.53;;
59374;SDS011;45172;55.006;73.460;2022-10-31T17:07:23;83.50;;;35.10;;
59374;SDS011;45172;55.006;73.460;2022-10-31T17:09:54;76.57;;;31.90;;
59374;SDS011;45172;55.006;73.460;2022-10-31T17:12:20;91.43;;;33.05;;
59374;SDS011;45172;55.006;73.460;2022-10-31T17:14:49;72.47;;;25.90;;
59374;SDS011;45172;55.006;73.460;2022-10-31T17:17:22;81.03;;;29.38;;
59374;SDS011;45172;55.006;73.460;2022-10-31T17:19:48;73.65;;;24.85;;
59374;SDS011;45172;55.006;73.460;2022-10-31T17:22:14;57.95;;;23.73;;
59374;SDS011;45172;55.006;73.460;2022-10-31T17:24:48;62.33;;;23.13;;
59374;SDS011;45172;55.006;73.460;2022-10-31T17:27:15;62.28;;;21.67;;
59374;SDS011;45172;55.006;73.460;2022-10-31T17:29:46;57.22;;;20.60;;
59374;SDS011;45172;55.006;73.460;2022-10-31T17:32:13;63.65;;;23.05;;
59374;SDS011;45172;55.006;73.460;2022-10-31T17:34:38;74.13;;;23.50;;
59374;SDS011;45172;55.006;73.460;2022-10-31T17:37:04;77.00;;;25.90;;